Time;durP1;ratioP1;P1;durP2;ratioP2;P2;SDS_P1;SDS_P2;PMS_P1;PMS_P2;Temp;Humidity;BMP_temperature;BMP_pressure;BME280_temperature;BME280_humidity;BME280_pressure;Samples;Min_cycle;Max_cycle;Signal;HPM_P1;HPM_P2
2023/05/26 00:02:20;;;;;;;27.10;3.30;;;;;;;6.47;49.41;102982.50;5074282;27;20589;-68
2023/05/26 00:04:46;;;;;;;16.20;2.42;;;;;;;6.76;49.10;102978.47;5083014;28;20032;-69
2023/05/26 00:07:11;;;;;;;21.45;3.70;;;;;;;6.74;49.18;102981.03;5075889;28;20042;-69
2023/05/26 00:09:36;;;;;;;24.63;2.47;;;;;;;6.59;49.26;102986.06;5074375;28;20123;-70
2023/05/26 00:12:02;;;;;;;12.75;3.47;;;;;;;6.31;50.47;102974.50;5079550;28;20074;-69
2023/05/26 00:14:27;;;;;;;19.40;2.70;;;;;;;6.44;49.57;102978.97;5074030;28;20048;-70
2023/05/26 00:16:56;;;;;;;19.83;2.35;;;;;;;6.54;49.32;102979.97;5078803;28;20027;-69
2023/05/26 00:19:21;;;;;;;18.42;1.52;;;;;;;6.21;50.22;102978.69;5078698;27;20040;-69
2023/05/26 00:21:47;;;;;;;24.25;2.30;;;;;;;6.43;49.74;102980.72;5111650;27;20040;-68
2023/05/26 00:24:12;;;;;;;16.25;1.83;;;;;;;6.48;49.68;102984.25;5081039;28;20067;-69
2023/05/26 00:26:38;;;;;;;18.10;3.67;;;;;;;6.23;50.08;102977.00;5067217;28;20036;-69
2023/05/26 00:29:04;;;;;;;23.30;1.92;;;;;;;6.59;48.83;102978.28;5070853;28;20458;-69
2023/05/26 00:31:30;;;;;;;11.90;2.35;;;;;;;6.34;49.60;102978.00;5103341;27;20495;-73
2023/05/26 00:33:56;;;;;;;18.63;3.75;;;;;;;6.45;49.54;102988.53;5092092;27;20456;-73
2023/05/26 00:36:22;;;;;;;22.65;3.63;;;;;;;6.31;50.04;102985.78;5077881;28;20035;-73
2023/05/26 00:38:47;;;;;;;21.35;2.17;;;;;;;6.44;49.76;102991.97;5078450;27;20044;-72
2023/05/26 00:41:14;;;;;;;20.63;2.08;;;;;;;6.18;50.28;102989.06;5085344;27;20032;-74
2023/05/26 00:43:39;;;;;;;12.55;2.03;;;;;;;6.38;49.87;102991.94;5084047;27;20729;-75
2023/05/26 00:46:05;;;;;;;25.67;2.45;;;;;;;6.41;49.83;102991.94;5081548;27;20036;-78
2023/05/26 00:48:30;;;;;;;16.50;2.25;;;;;;;6.40;49.80;102993.69;5083207;28;20047;-73
2023/05/26 00:50:56;;;;;;;19.08;2.95;;;;;;;6.50;49.60;102995.50;5080216;28;20058;-69
2023/05/26 00:53:23;;;;;;;15.75;3.22;;;;;;;6.16;50.57;102996.81;5084699;27;20497;-68
2023/05/26 00:55:53;;;;;;;23.50;2.58;;;;;;;6.37;49.79;102993.63;5094346;27;20062;-69
2023/05/26 00:58:19;;;;;;;26.52;2.80;;;;;;;6.35;49.88;102990.16;5086121;28;20574;-68
2023/05/26 01:00:45;;;;;;;18.65;2.55;;;;;;;6.29;50.39;102998.75;5075674;27;20040;-68
2023/05/26 01:03:13;;;;;;;20.48;2.03;;;;;;;6.25;49.96;102985.66;5078731;28;20044;-74
2023/05/26 01:05:39;;;;;;;16.13;2.65;;;;;;;6.39;49.69;102999.72;5078501;27;20028;-72
2023/05/26 01:08:04;;;;;;;18.55;2.78;;;;;;;6.48;49.58;102994.66;5077948;28;20380;-73
2023/05/26 01:10:31;;;;;;;23.70;2.30;;;;;;;6.37;49.80;103001.41;5084697;27;20039;-71
2023/05/26 01:13:05;;;;;;;18.30;2.63;;;;;;;6.45;49.69;102999.78;5075782;27;20517;-72
2023/05/26 01:15:36;;;;;;;16.67;2.42;;;;;;;6.24;50.50;103000.38;5075403;28;20571;-71
2023/05/26 01:18:24;;;;;;;8.90;1.80;;;;;;;6.28;50.25;103002.22;5082018;27;20566;-70
2023/05/26 01:20:59;;;;;;;24.10;3.38;;;;;;;6.21;50.80;102994.28;5078023;27;20595;-70
2023/05/26 01:23:40;;;;;;;17.13;2.47;;;;;;;6.49;50.04;103011.09;5076660;27;20036;-71
2023/05/26 01:26:31;;;;;;;22.15;2.38;;;;;;;6.37;50.42;103001.41;5094088;27;20059;-70
2023/05/26 01:29:00;;;;;;;20.20;2.03;;;;;;;6.03;51.15;103002.69;5085104;27;20334;-69
2023/05/26 01:31:26;;;;;;;22.35;3.42;;;;;;;6.28;50.50;103003.91;5109612;27;20032;-68
2023/05/26 01:33:51;;;;;;;13.50;2.45;;;;;;;6.63;49.92;103004.31;5079404;27;20083;-80
2023/05/26 01:36:17;;;;;;;15.95;2.47;;;;;;;6.74;49.25;103001.84;5079046;28;20425;-71
2023/05/26 01:38:42;;;;;;;21.00;3.05;;;;;;;6.64;50.01;103005.19;5069669;28;20050;-72
2023/05/26 01:41:26;;;;;;;15.13;2.25;;;;;;;6.67;50.27;103010.44;5069842;28;20314;-71
2023/05/26 01:44:01;;;;;;;14.55;2.03;;;;;;;6.81;49.62;103008.81;5085252;27;20123;-73
2023/05/26 01:46:41;;;;;;;19.95;2.47;;;;;;;6.64;49.68;103011.28;5101941;27;20127;-72
2023/05/26 01:49:11;;;;;;;12.50;2.42;;;;;;;6.83;49.31;103011.44;5069637;28;20043;-69
2023/05/26 01:51:42;;;;;;;20.95;2.83;;;;;;;6.75;49.85;103013.97;5093737;27;20028;-69
2023/05/26 01:54:09;;;;;;;19.00;3.08;;;;;;;6.69;49.81;103019.13;5084849;28;20048;-69
2023/05/26 01:56:36;;;;;;;17.95;3.28;;;;;;;6.78;49.25;103021.81;5089693;27;21063;-73
2023/05/26 01:59:02;;;;;;;13.32;2.35;;;;;;;6.77;49.47;103012.25;5112655;27;20036;-75
2023/05/26 02:01:29;;;;;;;14.57;1.75;;;;;;;6.74;49.37;103027.81;5075181;28;20059;-75
2023/05/26 02:03:55;;;;;;;22.08;2.25;;;;;;;6.50;49.89;103013.69;5079774;28;20185;-75
2023/05/26 02:06:21;;;;;;;27.88;2.65;;;;;;;6.48;50.28;103014.53;5076756;28;20063;-71
2023/05/26 02:08:47;;;;;;;22.38;3.03;;;;;;;6.36;50.62;103017.00;5083212;28;20046;-73
2023/05/26 02:11:13;;;;;;;14.68;2.08;;;;;;;6.80;49.06;103014.03;5091876;27;20039;-71
2023/05/26 02:13:38;;;;;;;15.25;2.45;;;;;;;6.52;49.42;103023.25;5057050;28;20065;-72
2023/05/26 02:16:04;;;;;;;22.23;2.20;;;;;;;6.61;48.96;103016.41;5076550;28;20355;-73
2023/05/26 02:18:30;;;;;;;18.48;2.83;;;;;;;6.83;48.29;103011.44;5063814;28;20039;-71
2023/05/26 02:20:56;;;;;;;12.00;2.10;;;;;;;6.83;48.55;103017.50;5077528;28;20047;-72
2023/05/26 02:23:22;;;;;;;18.50;2.97;;;;;;;6.68;48.70;103022.56;5073088;28;20115;-72
2023/05/26 02:25:47;;;;;;;14.77;2.28;;;;;;;6.66;49.03;103016.47;5090587;27;20036;-73
2023/05/26 02:28:13;;;;;;;18.20;3.33;;;;;;;6.62;48.97;103019.88;5073754;28;20036;-71
2023/05/26 02:30:39;;;;;;;17.55;2.35;;;;;;;6.62;49.50;103023.38;5057367;28;20087;-73
2023/05/26 02:33:05;;;;;;;15.85;3.03;;;;;;;6.64;48.92;103020.78;5073966;28;20063;-72
2023/05/26 02:35:32;;;;;;;11.38;3.25;;;;;;;6.54;49.35;103024.13;5060851;28;20393;-73
2023/05/26 02:37:57;;;;;;;14.80;1.90;;;;;;;6.39;49.95;103024.81;5076525;28;20054;-71
2023/05/26 02:40:23;;;;;;;20.95;3.55;;;;;;;6.49;49.62;103032.75;5080507;28;20028;-72
2023/05/26 02:42:48;;;;;;;26.98;4.00;;;;;;;6.66;49.02;103032.06;5074056;27;20044;-71
2023/05/26 02:45:13;;;;;;;14.93;2.13;;;;;;;6.40;49.47;103040.44;5078506;27;20028;-72
2023/05/26 02:47:39;;;;;;;14.52;2.67;;;;;;;6.38;49.71;103039.53;5074921;28;20039;-73
2023/05/26 02:50:05;;;;;;;22.92;2.75;;;;;;;6.38;49.49;103026.56;5084184;28;20036;-72
2023/05/26 02:52:32;;;;;;;20.20;2.35;;;;;;;6.20;50.37;103034.97;5074014;27;20039;-73
2023/05/26 02:54:57;;;;;;;19.73;2.38;;;;;;;6.33;49.99;103037.72;5065721;28;20027;-72
2023/05/26 02:57:23;;;;;;;13.90;2.30;;;;;;;6.60;48.79;103029.41;5073238;28;20042;-67
2023/05/26 02:59:48;;;;;;;23.45;4.25;;;;;;;6.42;49.69;103037.88;5079830;27;20184;-72
2023/05/26 03:02:14;;;;;;;23.85;2.83;;;;;;;6.25;50.18;103038.47;5076193;27;20038;-78
2023/05/26 03:04:40;;;;;;;15.98;3.72;;;;;;;6.32;49.52;103039.47;5088071;28;20111;-78
2023/05/26 03:07:07;;;;;;;17.90;2.80;;;;;;;6.35;49.96;103033.44;5068616;28;20455;-77
2023/05/26 03:09:34;;;;;;;19.80;3.22;;;;;;;6.60;49.09;103037.22;5101528;27;20529;-78
2023/05/26 03:12:01;;;;;;;15.73;1.92;;;;;;;6.71;49.07;103033.00;5095724;27;20027;-75
2023/05/26 03:14:27;;;;;;;12.35;2.95;;;;;;;6.59;48.80;103043.25;5063727;28;20141;-75
2023/05/26 03:16:52;;;;;;;20.98;2.70;;;;;;;6.87;48.65;103040.09;5061750;28;20031;-75
2023/05/26 03:19:18;;;;;;;24.02;3.30;;;;;;;6.87;48.50;103034.88;5079408;27;20743;-75
2023/05/26 03:21:45;;;;;;;12.75;2.95;;;;;;;6.91;48.69;103031.47;5079348;27;20112;-75
2023/05/26 03:24:10;;;;;;;15.93;2.33;;;;;;;6.82;48.88;103040.88;5065034;28;20032;-75
2023/05/26 03:26:36;;;;;;;29.00;2.67;;;;;;;6.77;48.93;103040.84;5080378;28;20053;-76
2023/05/26 03:29:02;;;;;;;14.93;2.33;;;;;;;6.63;49.15;103035.50;5071560;27;20502;-78
2023/05/26 03:31:27;;;;;;;25.30;2.42;;;;;;;6.55;49.32;103042.34;5090512;27;20357;-78
2023/05/26 03:33:53;;;;;;;15.70;1.60;;;;;;;6.70;48.65;103041.63;5082473;28;20047;-75
2023/05/26 03:36:19;;;;;;;10.05;1.52;;;;;;;6.59;48.75;103038.03;5076057;28;20038;-74
2023/05/26 03:38:44;;;;;;;29.48;3.08;;;;;;;6.72;48.65;103034.72;5082981;28;20032;-75
2023/05/26 03:41:10;;;;;;;15.57;3.17;;;;;;;7.05;47.79;103033.34;5062650;28;20035;-76
2023/05/26 03:43:46;;;;;;;16.52;2.17;;;;;;;6.88;48.48;103031.41;5062138;28;20067;-75
2023/05/26 03:46:12;;;;;;;13.93;2.80;;;;;;;6.81;48.09;103037.41;5083135;28;20122;-75
2023/05/26 03:48:37;;;;;;;24.00;3.92;;;;;;;6.97;48.17;103053.19;5074941;27;20585;-75
2023/05/26 03:51:03;;;;;;;17.33;2.47;;;;;;;6.75;48.46;103042.53;5077335;28;20624;-75
2023/05/26 03:53:31;;;;;;;19.92;3.92;;;;;;;6.80;47.99;103048.69;5061614;28;20046;-74
2023/05/26 03:55:57;;;;;;;20.48;3.17;;;;;;;6.81;48.12;103047.81;5072909;28;20036;-75
2023/05/26 03:58:22;;;;;;;12.32;1.50;;;;;;;6.84;47.80;103055.66;5075893;28;20122;-71
2023/05/26 04:00:48;;;;;;;25.60;3.63;;;;;;;7.00;47.74;103050.59;5065123;28;20028;-70
2023/05/26 04:03:14;;;;;;;16.23;2.05;;;;;;;7.20;47.45;103051.69;5077802;28;20078;-71
2023/05/26 04:05:40;;;;;;;19.67;2.83;;;;;;;7.16;47.50;103047.31;5106785;27;20036;-71
2023/05/26 04:08:05;;;;;;;14.18;2.28;;;;;;;7.31;46.81;103047.44;5081283;28;20036;-71
2023/05/26 04:10:31;;;;;;;25.50;3.38;;;;;;;7.53;46.74;103052.78;5067734;28;20180;-71
2023/05/26 04:12:57;;;;;;;15.85;3.95;;;;;;;7.45;46.82;103054.50;5073505;28;20599;-70
2023/05/26 04:15:22;;;;;;;14.65;2.03;;;;;;;7.57;47.07;103054.59;5108822;27;20082;-71
2023/05/26 04:17:48;;;;;;;11.68;1.90;;;;;;;7.77;46.66;103056.47;5073772;28;20114;-74
2023/05/26 04:20:14;;;;;;;22.83;2.40;;;;;;;7.95;46.70;103067.88;5077657;28;20063;-74
2023/05/26 04:22:40;;;;;;;13.93;2.33;;;;;;;7.98;46.38;103067.03;5081749;28;20089;-74
2023/05/26 04:25:09;;;;;;;16.83;1.92;;;;;;;7.62;46.96;103073.72;5066972;28;20036;-74
2023/05/26 04:28:04;;;;;;;21.73;3.13;;;;;;;7.94;46.27;103067.88;5024812;28;20805;-71
2023/05/26 04:30:53;;;;;;;16.98;2.45;;;;;;;8.05;45.97;103074.03;5049602;28;20031;-72
2023/05/26 04:33:22;;;;;;;16.40;2.90;;;;;;;8.25;45.62;103074.13;5073098;28;20044;-72
2023/05/26 04:35:59;;;;;;;21.55;3.15;;;;;;;8.31;45.22;103075.88;5072817;28;20040;-71
2023/05/26 04:38:25;;;;;;;17.20;2.90;;;;;;;8.33;45.25;103072.41;5073658;28;20552;-71
2023/05/26 04:40:51;;;;;;;22.92;2.83;;;;;;;8.08;46.01;103063.59;5064914;28;20028;-71
2023/05/26 04:43:20;;;;;;;16.02;3.22;;;;;;;8.30;45.56;103076.75;5067046;28;20165;-78
2023/05/26 04:45:46;;;;;;;21.40;2.45;;;;;;;8.09;46.14;103067.97;5068051;28;20039;-78
2023/05/26 04:48:12;;;;;;;13.23;2.67;;;;;;;8.12;45.73;103070.59;5074469;28;20040;-79
2023/05/26 04:50:39;;;;;;;17.30;1.95;;;;;;;8.15;45.21;103083.63;5082350;28;20046;-78
2023/05/26 04:53:06;;;;;;;19.55;2.47;;;;;;;8.33;45.27;103084.56;5080365;28;20496;-78
2023/05/26 04:55:37;;;;;;;22.58;2.75;;;;;;;8.39;44.88;103089.81;5090153;27;20043;-78
2023/05/26 04:58:06;;;;;;;14.95;2.05;;;;;;;8.34;44.84;103087.19;5075819;28;20032;-78
2023/05/26 05:00:34;;;;;;;10.52;1.60;;;;;;;8.17;44.59;103081.03;5079398;28;20063;-79
2023/05/26 05:03:17;;;;;;;23.95;2.28;;;;;;;7.76;44.79;103091.16;5091848;27;20040;-77
2023/05/26 05:05:52;;;;;;;9.65;1.52;;;;;;;8.13;44.30;103095.75;5071080;28;20702;-78
2023/05/26 05:08:18;;;;;;;16.52;2.03;;;;;;;8.28;44.17;103099.31;5091411;27;20167;-78
2023/05/26 05:10:43;;;;;;;13.25;2.38;;;;;;;8.18;44.49;103094.91;5080465;27;20178;-78
2023/05/26 05:13:10;;;;;;;15.35;2.58;;;;;;;7.68;44.93;103094.59;5087783;27;20930;-78
2023/05/26 05:15:36;;;;;;;13.73;2.15;;;;;;;8.20;43.55;103087.97;5072040;28;20055;-78
2023/05/26 05:18:02;;;;;;;20.23;1.42;;;;;;;8.20;43.61;103087.97;5068628;28;20135;-79
2023/05/26 05:20:28;;;;;;;17.20;1.88;;;;;;;8.51;42.87;103095.06;5088128;27;20160;-78
2023/05/26 05:22:54;;;;;;;12.60;1.58;;;;;;;8.78;42.26;103090.84;5098691;27;20036;-79
2023/05/26 05:25:22;;;;;;;12.77;1.80;;;;;;;8.64;42.78;103095.13;5080809;28;20042;-74
2023/05/26 05:27:47;;;;;;;15.98;2.75;;;;;;;9.02;42.10;103094.41;5069077;28;20558;-77
2023/05/26 05:30:15;;;;;;;12.57;1.90;;;;;;;9.06;41.24;103093.56;5103610;27;20046;-72
2023/05/26 05:32:41;;;;;;;8.98;1.40;;;;;;;8.97;42.17;103100.47;5077222;27;20032;-71
2023/05/26 05:35:08;;;;;;;13.52;2.00;;;;;;;10.05;41.15;103104.88;5084656;28;21321;-71
2023/05/26 05:37:33;;;;;;;18.80;2.03;;;;;;;10.50;39.71;103103.84;5090864;27;20060;-71
2023/05/26 05:39:59;;;;;;;19.13;2.65;;;;;;;10.36;40.61;103103.91;5067834;28;20115;-70
2023/05/26 05:42:25;;;;;;;13.80;1.85;;;;;;;10.81;39.75;103109.81;5064875;28;20105;-72
2023/05/26 05:44:51;;;;;;;21.25;2.83;;;;;;;11.14;37.61;103112.25;5078343;28;20038;-74
2023/05/26 05:47:20;;;;;;;15.40;2.22;;;;;;;10.45;37.97;103109.97;5068579;28;20028;-74
2023/05/26 05:49:56;;;;;;;11.38;1.48;;;;;;;10.99;37.52;103113.22;5094549;27;20036;-74
2023/05/26 05:52:22;;;;;;;19.02;1.83;;;;;;;11.24;37.15;103124.38;5078909;27;20284;-74
2023/05/26 05:54:47;;;;;;;11.63;1.58;;;;;;;12.70;34.04;103118.59;5081716;27;20035;-70
2023/05/26 05:57:13;;;;;;;9.25;1.30;;;;;;;14.04;32.58;103115.63;5075926;27;20028;-78
2023/05/26 05:59:39;;;;;;;15.10;2.28;;;;;;;15.43;30.05;103118.78;5069570;27;20035;-78
2023/05/26 06:02:05;;;;;;;16.20;3.03;;;;;;;14.63;30.95;103126.72;5062283;28;20647;-70
2023/05/26 06:04:30;;;;;;;12.20;1.73;;;;;;;14.66;30.85;103124.03;5074683;28;20039;-72
2023/05/26 06:06:57;;;;;;;8.85;1.40;;;;;;;16.24;29.03;103119.25;5073952;28;20030;-71
2023/05/26 06:09:22;;;;;;;13.07;2.08;;;;;;;16.02;28.83;103126.94;5063896;28;20040;-72
2023/05/26 06:11:48;;;;;;;13.45;2.08;;;;;;;16.63;28.31;103132.19;5077337;28;20132;-71
2023/05/26 06:14:14;;;;;;;12.63;2.00;;;;;;;17.09;27.30;103130.81;5077174;27;20032;-75
2023/05/26 06:16:40;;;;;;;7.60;1.80;;;;;;;18.16;26.83;103122.75;5066169;27;20542;-72
2023/05/26 06:19:05;;;;;;;10.88;1.90;;;;;;;18.29;26.22;103126.72;5077523;28;20040;-72
2023/05/26 06:21:31;;;;;;;11.85;1.55;;;;;;;17.36;27.07;103133.47;5077412;28;20032;-73
2023/05/26 06:24:00;;;;;;;12.02;2.47;;;;;;;16.92;27.11;103127.84;5074503;27;20040;-74
2023/05/26 06:26:26;;;;;;;13.60;1.65;;;;;;;17.12;27.73;103125.44;5061847;28;20122;-71
2023/05/26 06:28:52;;;;;;;10.23;1.35;;;;;;;17.41;27.22;103131.53;5076417;27;20031;-73
2023/05/26 06:31:19;;;;;;;18.55;1.58;;;;;;;17.62;27.25;103122.88;5081183;28;20034;-69
2023/05/26 06:33:50;;;;;;;13.55;1.52;;;;;;;17.54;27.07;103116.16;5107748;27;20039;-70
2023/05/26 06:36:15;;;;;;;13.00;1.63;;;;;;;17.34;27.77;103130.88;5065429;28;20860;-70
2023/05/26 06:38:41;;;;;;;13.70;2.03;;;;;;;16.92;28.00;103127.84;5077062;28;20046;-70
2023/05/26 06:41:09;;;;;;;12.95;1.77;;;;;;;17.12;27.24;103136.00;5062853;28;20047;-71
2023/05/26 06:43:36;;;;;;;14.48;1.73;;;;;;;17.70;26.80;103135.00;5058460;28;20677;-71
2023/05/26 06:46:03;;;;;;;13.10;1.08;;;;;;;17.65;25.91;103137.81;5092851;27;20035;-72
2023/05/26 06:48:29;;;;;;;17.65;3.30;;;;;;;17.69;26.03;103130.63;5076174;28;20075;-73
2023/05/26 06:51:22;;;;;;;12.23;1.50;;;;;;;18.10;25.80;103136.25;5072339;28;20036;-73
2023/05/26 06:53:48;;;;;;;6.60;1.60;;;;;;;17.48;25.76;103137.50;5083394;28;20525;-72
2023/05/26 06:56:13;;;;;;;7.57;1.27;;;;;;;17.06;25.36;103138.81;5084611;28;20377;-73
2023/05/26 06:58:39;;;;;;;8.32;1.02;;;;;;;17.03;25.52;103145.06;5066477;27;20696;-72
2023/05/26 07:01:05;;;;;;;8.52;1.50;;;;;;;17.58;25.39;103145.09;5060109;28;20572;-72
2023/05/26 07:03:34;;;;;;;11.35;1.38;;;;;;;17.48;25.49;103133.09;5071483;27;20069;-72
2023/05/26 07:06:02;;;;;;;8.40;1.75;;;;;;;16.79;26.03;103137.91;5080030;27;20032;-71
2023/05/26 07:08:30;;;;;;;12.18;2.05;;;;;;;17.57;25.31;103131.91;5073190;27;20068;-72
2023/05/26 07:11:13;;;;;;;16.23;2.40;;;;;;;17.73;25.60;103138.38;5075784;27;20027;-70
2023/05/26 07:13:39;;;;;;;9.65;1.70;;;;;;;17.99;25.03;103137.47;5073770;28;20075;-72
2023/05/26 07:16:04;;;;;;;8.88;1.75;;;;;;;18.67;23.50;103141.13;5056356;28;20117;-71
2023/05/26 07:18:30;;;;;;;7.88;0.95;;;;;;;18.56;23.89;103139.84;5077133;28;20036;-73
2023/05/26 07:20:56;;;;;;;9.18;1.63;;;;;;;19.12;23.60;103144.69;5075343;28;20040;-74
2023/05/26 07:23:22;;;;;;;7.03;0.77;;;;;;;18.84;24.12;103148.44;5082162;28;20051;-73
2023/05/26 07:25:47;;;;;;;7.50;1.27;;;;;;;18.16;24.18;103146.56;5077338;28;20078;-69
2023/05/26 07:28:13;;;;;;;7.50;1.52;;;;;;;17.96;25.03;103150.84;5075633;27;20043;-68
2023/05/26 07:30:39;;;;;;;14.10;3.05;;;;;;;17.10;25.47;103152.81;5078042;28;20094;-70
2023/05/26 07:33:07;;;;;;;9.38;2.20;;;;;;;16.82;26.17;103154.53;5067262;28;20036;-72
2023/05/26 07:35:33;;;;;;;15.23;1.65;;;;;;;17.50;24.94;103156.84;5080194;27;20035;-70
2023/05/26 07:37:59;;;;;;;5.85;1.40;;;;;;;17.32;25.26;103155.63;5077732;28;20044;-72
2023/05/26 07:40:25;;;;;;;9.23;0.77;;;;;;;17.43;25.37;103151.72;5072261;28;20108;-70
2023/05/26 07:42:51;;;;;;;10.32;1.38;;;;;;;18.14;23.93;103148.41;5071308;28;20455;-72
2023/05/26 07:45:16;;;;;;;11.77;1.67;;;;;;;18.66;23.34;103155.31;5074798;27;20028;-73
2023/05/26 07:47:42;;;;;;;5.68;1.83;;;;;;;18.36;24.00;103154.69;5104847;27;20592;-72
2023/05/26 07:50:08;;;;;;;5.70;1.00;;;;;;;17.38;24.60;103152.78;5071255;28;21664;-71
2023/05/26 07:52:34;;;;;;;4.30;1.00;;;;;;;17.84;24.10;103156.53;5104310;27;20039;-75
2023/05/26 07:55:00;;;;;;;11.68;1.38;;;;;;;17.99;23.88;103148.06;5062278;28;20089;-71
2023/05/26 07:57:26;;;;;;;8.38;1.00;;;;;;;18.19;24.23;103157.97;5070421;28;20070;-71
2023/05/26 07:59:51;;;;;;;8.90;1.42;;;;;;;18.36;23.20;103161.75;5074338;28;20028;-72
2023/05/26 08:02:17;;;;;;;4.68;1.20;;;;;;;18.34;22.96;103161.84;5070260;27;20763;-71
2023/05/26 08:04:42;;;;;;;9.63;1.80;;;;;;;19.16;21.99;103162.22;5076476;28;20509;-72
2023/05/26 08:07:07;;;;;;;11.80;1.83;;;;;;;19.32;23.07;103149.19;5075755;28;21220;-73
2023/05/26 08:09:33;;;;;;;9.77;1.73;;;;;;;18.90;22.78;103160.63;5075459;27;20056;-72
2023/05/26 08:11:59;;;;;;;9.40;1.52;;;;;;;18.30;23.95;103157.56;5075230;28;20584;-73
2023/05/26 08:14:26;;;;;;;8.57;0.80;;;;;;;18.81;23.59;103161.81;5066263;27;20169;-73
2023/05/26 08:16:51;;;;;;;8.95;1.15;;;;;;;18.55;23.50;103164.59;5088333;27;20032;-73
2023/05/26 08:19:17;;;;;;;11.40;1.55;;;;;;;18.94;24.05;103161.34;5058748;28;20059;-72
2023/05/26 08:21:45;;;;;;;7.07;1.02;;;;;;;19.82;22.42;103155.97;5071296;28;20129;-71
2023/05/26 08:24:11;;;;;;;10.82;1.15;;;;;;;18.97;22.87;103166.56;5071337;28;20064;-72
2023/05/26 08:26:36;;;;;;;9.50;1.20;;;;;;;16.32;26.79;103170.03;5071048;28;20042;-73
2023/05/26 08:29:01;;;;;;;11.98;1.05;;;;;;;14.73;29.10;103162.47;5076988;28;20074;-74
2023/05/26 08:31:27;;;;;;;8.98;2.35;;;;;;;14.82;29.72;103168.44;5074923;28;20028;-73
2023/05/26 08:33:53;;;;;;;9.25;1.30;;;;;;;15.80;28.54;103171.44;5083930;27;20871;-71
2023/05/26 08:36:19;;;;;;;23.25;1.88;;;;;;;14.92;29.95;103176.09;5105125;27;20040;-72
2023/05/26 08:38:45;;;;;;;10.20;1.40;;;;;;;15.33;30.12;103181.38;5077897;27;20089;-72
2023/05/26 08:41:17;;;;;;;6.60;1.90;;;;;;;15.66;27.70;103174.41;5072027;28;20210;-74
2023/05/26 08:43:56;;;;;;;10.90;1.20;;;;;;;15.08;29.38;103181.91;5072708;27;20643;-73
2023/05/26 08:46:22;;;;;;;11.55;1.80;;;;;;;16.72;27.27;103179.44;5079765;28;20046;-73
2023/05/26 08:48:50;;;;;;;10.32;1.20;;;;;;;18.55;24.31;103170.75;5074581;28;20039;-74
2023/05/26 08:51:15;;;;;;;9.02;1.70;;;;;;;17.12;25.94;103172.13;5074870;28;20782;-73
2023/05/26 08:53:41;;;;;;;9.77;1.70;;;;;;;15.78;28.89;103178.50;5074335;28;20032;-72
2023/05/26 08:56:08;;;;;;;15.68;1.65;;;;;;;14.18;30.86;103187.22;5091261;27;20722;-73
2023/05/26 08:58:34;;;;;;;9.75;0.95;;;;;;;13.82;30.94;103186.13;5074413;28;20038;-72
2023/05/26 09:01:01;;;;;;;8.43;1.30;;;;;;;14.41;30.84;103181.56;5079145;28;20483;-73
2023/05/26 09:03:28;;;;;;;15.00;1.58;;;;;;;14.70;30.35;103183.63;5076324;27;20679;-73
2023/05/26 09:05:53;;;;;;;11.43;2.00;;;;;;;13.55;31.65;103185.66;5107065;27;20395;-72
2023/05/26 09:08:19;;;;;;;9.90;1.42;;;;;;;12.98;33.29;103190.84;5082178;27;20615;-72
2023/05/26 09:10:45;;;;;;;11.95;1.63;;;;;;;13.05;32.73;103193.41;5076410;28;20036;-72
2023/05/26 09:13:13;;;;;;;10.68;1.65;;;;;;;13.41;32.55;103191.13;5071767;27;20051;-72
2023/05/26 09:15:39;;;;;;;9.20;1.27;;;;;;;14.65;30.35;103188.09;5084800;27;20043;-73
2023/05/26 09:18:10;;;;;;;17.13;1.98;;;;;;;15.26;29.89;103187.66;5074115;28;20048;-72
2023/05/26 09:20:47;;;;;;;13.82;2.03;;;;;;;15.15;29.65;103191.41;5076555;28;20031;-72
2023/05/26 09:23:15;;;;;;;16.77;1.40;;;;;;;15.08;30.18;103187.19;5074087;27;20055;-73
2023/05/26 09:25:42;;;;;;;18.23;2.13;;;;;;;14.98;31.38;103185.63;5077998;28;20399;-72
2023/05/26 09:28:10;;;;;;;8.45;1.95;;;;;;;15.49;30.49;103188.00;5075969;28;20055;-71
2023/05/26 09:30:37;;;;;;;7.28;1.08;;;;;;;15.94;29.30;103184.25;5075953;28;20656;-73
2023/05/26 09:33:08;;;;;;;14.30;1.45;;;;;;;16.09;29.40;103185.66;5065009;28;20048;-71
2023/05/26 09:35:39;;;;;;;9.02;1.98;;;;;;;14.75;30.64;103188.78;5074447;27;20028;-72
2023/05/26 09:38:07;;;;;;;18.75;2.58;;;;;;;14.54;31.16;103205.84;5075196;28;20047;-73
2023/05/26 09:40:33;;;;;;;11.25;1.55;;;;;;;14.44;31.18;103196.44;5075644;27;20043;-72
2023/05/26 09:43:00;;;;;;;11.25;2.28;;;;;;;14.18;31.77;103199.50;5079446;27;20044;-73
2023/05/26 09:45:26;;;;;;;17.83;1.88;;;;;;;14.11;32.94;103204.00;5105523;27;20123;-72
2023/05/26 09:47:58;;;;;;;9.70;1.88;;;;;;;13.47;33.06;103204.16;5065241;28;20036;-72
2023/05/26 09:50:24;;;;;;;6.72;1.42;;;;;;;13.99;32.52;103206.88;5076564;28;20046;-71
2023/05/26 09:52:50;;;;;;;14.55;1.65;;;;;;;13.99;32.17;103196.34;5071112;28;20039;-73
2023/05/26 09:55:16;;;;;;;18.20;2.10;;;;;;;15.11;32.87;103202.91;5075135;28;20054;-73
2023/05/26 09:57:44;;;;;;;12.60;3.03;;;;;;;15.28;31.01;103209.56;5080995;28;20085;-71
2023/05/26 10:00:12;;;;;;;15.60;2.50;;;;;;;15.11;30.60;103202.91;5059879;28;20031;-73
2023/05/26 10:02:39;;;;;;;14.35;1.67;;;;;;;14.07;32.55;103200.56;5072597;27;20044;-73
2023/05/26 10:05:06;;;;;;;9.98;1.80;;;;;;;13.43;33.16;103207.72;5071998;28;20044;-71
2023/05/26 10:07:33;;;;;;;8.40;1.48;;;;;;;13.01;33.35;103210.06;5074926;27;21286;-72
2023/05/26 10:10:00;;;;;;;12.15;1.23;;;;;;;13.52;32.25;103199.72;5073106;28;20065;-73
2023/05/26 10:12:30;;;;;;;12.85;1.50;;;;;;;13.70;32.28;103193.31;5105415;27;20103;-73
2023/05/26 10:14:56;;;;;;;15.60;2.17;;;;;;;14.02;31.96;103198.91;5072938;28;20057;-73
2023/05/26 10:17:22;;;;;;;8.23;1.17;;;;;;;14.97;30.49;103195.31;5056040;28;20485;-73
2023/05/26 10:19:49;;;;;;;10.82;2.22;;;;;;;14.27;31.17;103196.69;5080272;28;20046;-73
2023/05/26 10:22:24;;;;;;;7.55;1.35;;;;;;;14.68;30.93;103188.03;5071545;27;20047;-73
2023/05/26 10:25:01;;;;;;;7.50;1.45;;;;;;;15.56;29.69;103196.63;5054663;28;20032;-72
2023/05/26 10:27:38;;;;;;;12.85;1.80;;;;;;;14.86;30.92;103196.47;5069839;27;20151;-73
2023/05/26 10:30:11;;;;;;;11.05;1.10;;;;;;;14.58;31.31;103191.75;5065302;28;20039;-72
2023/05/26 10:32:53;;;;;;;12.45;1.70;;;;;;;14.99;31.42;103192.63;5072960;27;20040;-73
2023/05/26 10:35:25;;;;;;;7.50;1.92;;;;;;;14.47;30.81;103193.72;5075091;27;20040;-73
2023/05/26 10:38:01;;;;;;;10.05;1.27;;;;;;;14.48;32.21;103188.44;5078121;28;20048;-73
2023/05/26 10:40:37;;;;;;;13.75;1.92;;;;;;;15.65;30.58;103188.50;5072308;28;20075;-73
2023/05/26 10:43:21;;;;;;;10.40;1.65;;;;;;;16.09;29.97;103183.03;5069586;27;20605;-72
2023/05/26 10:46:03;;;;;;;14.20;2.55;;;;;;;15.53;31.25;103183.53;5102551;27;20508;-73
2023/05/26 10:48:39;;;;;;;13.68;1.75;;;;;;;15.01;31.68;103188.19;5072096;27;20119;-72
2023/05/26 10:51:24;;;;;;;17.85;1.63;;;;;;;14.69;32.72;103181.88;5063970;28;20044;-73
2023/05/26 10:53:51;;;;;;;17.55;1.80;;;;;;;15.18;32.08;103183.41;5071432;28;20135;-71
2023/05/26 10:56:18;;;;;;;6.30;1.52;;;;;;;14.65;33.04;103182.81;5081294;27;20031;-71
2023/05/26 10:58:49;;;;;;;13.95;2.10;;;;;;;14.08;33.61;103176.00;5085120;27;20032;-72
2023/05/26 11:01:22;;;;;;;15.15;2.03;;;;;;;13.83;34.62;103175.59;5075595;28;20354;-71
2023/05/26 11:03:55;;;;;;;16.25;2.53;;;;;;;13.84;34.48;103182.56;5083970;28;20036;-73
2023/05/26 11:06:33;;;;;;;18.08;1.60;;;;;;;13.70;34.87;103181.94;5073546;28;20027;-72
2023/05/26 11:09:02;;;;;;;15.63;2.88;;;;;;;13.07;36.70;103191.63;5080354;28;20059;-71
2023/05/26 11:11:30;;;;;;;14.52;1.92;;;;;;;12.80;37.43;103194.59;5070575;28;20028;-72
2023/05/26 11:14:09;;;;;;;9.05;1.92;;;;;;;13.09;36.94;103197.72;5071929;28;20281;-72
2023/05/26 11:16:37;;;;;;;13.23;2.55;;;;;;;12.71;38.20;103192.94;5070646;27;20049;-72
2023/05/26 11:19:07;;;;;;;15.07;2.58;;;;;;;12.39;39.20;103193.28;5072172;28;20039;-71
2023/05/26 11:21:34;;;;;;;19.85;2.83;;;;;;;12.01;41.82;103200.66;5078523;27;20036;-72
2023/05/26 11:24:02;;;;;;;13.85;2.05;;;;;;;11.88;41.95;103202.50;5072867;28;20028;-72
2023/05/26 11:26:30;;;;;;;24.45;3.30;;;;;;;12.34;40.77;103190.72;5066953;28;20281;-71